sensor_id;sensor_type;location;lat;lon;timestamp;pressure;altitude;pressure_sealevel;temperature;humidity
37238;BME280;23129;49.662;8.448;2023-03-14T00:00:09;98900.41;;;11.02;100.00
37238;BME280;23129;49.662;8.448;2023-03-14T00:02:38;98884.66;;;11.02;100.00
37238;BME280;23129;49.662;8.448;2023-03-14T00:05:08;98883.81;;;11.02;100.00
37238;BME280;23129;49.662;8.448;2023-03-14T00:07:39;98905.63;;;11.02;100.00
37238;BME280;23129;49.662;8.448;2023-03-14T00:10:13;98909.94;;;11.03;100.00
37238;BME280;23129;49.662;8.448;2023-03-14T00:12:42;98896.00;;;11.03;100.00
37238;BME280;23129;49.662;8.448;2023-03-14T00:15:11;98898.72;;;11.01;100.00
37238;BME280;23129;49.662;8.448;2023-03-14T00:17:43;98908.34;;;11.01;100.00
37238;BME280;23129;49.662;8.448;2023-03-14T00:20:12;98896.94;;;11.02;100.00
37238;BME280;23129;49.662;8.448;2023-03-14T00:22:41;98888.13;;;11.03;100.00
37238;BME280;23129;49.662;8.448;2023-03-14T00:25:12;98883.63;;;11.05;100.00
37238;BME280;23129;49.662;8.448;2023-03-14T00:27:41;98873.16;;;11.05;100.00
37238;BME280;23129;49.662;8.448;2023-03-14T00:30:10;98883.63;;;11.05;100.00
37238;BME280;23129;49.662;8.448;2023-03-14T00:32:39;98885.31;;;11.06;100.00
37238;BME280;23129;49.662;8.448;2023-03-14T00:35:09;98891.50;;;11.05;100.00
37238;BME280;23129;49.662;8.448;2023-03-14T00:37:38;98873.03;;;11.06;100.00
37238;BME280;23129;49.662;8.448;2023-03-14T00:40:08;98865.19;;;11.06;100.00
37238;BME280;23129;49.662;8.448;2023-03-14T00:42:38;98867.72;;;11.08;100.00
37238;BME280;23129;49.662;8.448;2023-03-14T00:45:08;98860.78;;;11.07;100.00
37238;BME280;23129;49.662;8.448;2023-03-14T00:47:37;98858.16;;;11.07;100.00
37238;BME280;23129;49.662;8.448;2023-03-14T00:50:07;98855.44;;;11.08;100.00
37238;BME280;23129;49.662;8.448;2023-03-14T00:52:35;98854.50;;;11.09;100.00
37238;BME280;23129;49.662;8.448;2023-03-14T00:55:06;98862.38;;;11.09;100.00
37238;BME280;23129;49.662;8.448;2023-03-14T00:57:35;98843.94;;;11.11;100.00
37238;BME280;23129;49.662;8.448;2023-03-14T01:00:06;98871.13;;;11.10;100.00
37238;BME280;23129;49.662;8.448;2023-03-14T01:02:38;98860.78;;;11.07;100.00
37238;BME280;23129;49.662;8.448;2023-03-14T01:05:08;98872.97;;;11.08;100.00
37238;BME280;23129;49.662;8.448;2023-03-14T01:07:37;98886.09;;;11.08;100.00
37238;BME280;23129;49.662;8.448;2023-03-14T01:10:08;98882.47;;;11.10;100.00
37238;BME280;23129;49.662;8.448;2023-03-14T01:12:37;98891.19;;;11.11;100.00
37238;BME280;23129;49.662;8.448;2023-03-14T01:15:08;98898.88;;;11.14;100.00
37238;BME280;23129;49.662;8.448;2023-03-14T01:17:36;98897.94;;;11.15;100.00
37238;BME280;23129;49.662;8.448;2023-03-14T01:20:09;98882.19;;;11.15;100.00
37238;BME280;23129;49.662;8.448;2023-03-14T01:22:39;98886.53;;;11.16;100.00
37238;BME280;23129;49.662;8.448;2023-03-14T01:25:14;98872.47;;;11.17;100.00
37238;BME280;23129;49.662;8.448;2023-03-14T01:27:43;98881.28;;;11.16;100.00
37238;BME280;23129;49.662;8.448;2023-03-14T01:30:14;98856.91;;;11.14;100.00
37238;BME280;23129;49.662;8.448;2023-03-14T01:32:44;98861.38;;;11.12;100.00
37238;BME280;23129;49.662;8.448;2023-03-14T01:35:12;98866.63;;;11.12;100.00
37238;BME280;23129;49.662;8.448;2023-03-14T01:37:40;98845.63;;;11.12;100.00
37238;BME280;23129;49.662;8.448;2023-03-14T01:40:14;98831.59;;;11.13;100.00
37238;BME280;23129;49.662;8.448;2023-03-14T01:42:55;98841.31;;;11.11;100.00
37238;BME280;23129;49.662;8.448;2023-03-14T01:46:15;98843.19;;;11.09;100.00
37238;BME280;23129;49.662;8.448;2023-03-14T01:48:54;98836.25;;;11.08;100.00
37238;BME280;23129;49.662;8.448;2023-03-14T01:51:29;98818.78;;;11.07;100.00
37238;BME280;23129;49.662;8.448;2023-03-14T01:54:10;98818.06;;;11.05;100.00
37238;BME280;23129;49.662;8.448;2023-03-14T01:56:41;98805.84;;;11.04;100.00
37238;BME280;23129;49.662;8.448;2023-03-14T01:59:12;98804.28;;;11.01;100.00
37238;BME280;23129;49.662;8.448;2023-03-14T02:01:44;98819.25;;;10.99;100.00
37238;BME280;23129;49.662;8.448;2023-03-14T02:04:16;98798.31;;;10.97;100.00
37238;BME280;23129;49.662;8.448;2023-03-14T02:06:53;98793.06;;;10.97;100.00
37238;BME280;23129;49.662;8.448;2023-03-14T02:09:27;98787.00;;;10.97;100.00
37238;BME280;23129;49.662;8.448;2023-03-14T02:11:57;98797.41;;;10.99;100.00
37238;BME280;23129;49.662;8.448;2023-03-14T02:14:46;98793.06;;;10.97;100.00
37238;BME280;23129;49.662;8.448;2023-03-14T02:17:22;98777.44;;;10.96;100.00
37238;BME280;23129;49.662;8.448;2023-03-14T02:20:27;98767.03;;;10.94;100.00
37238;BME280;23129;49.662;8.448;2023-03-14T02:22:58;98776.59;;;10.95;100.00
37238;BME280;23129;49.662;8.448;2023-03-14T02:25:38;98763.50;;;10.95;100.00
37238;BME280;23129;49.662;8.448;2023-03-14T02:28:12;98750.28;;;10.97;100.00
37238;BME280;23129;49.662;8.448;2023-03-14T02:30:41;98759.91;;;10.96;100.00
37238;BME280;23129;49.662;8.448;2023-03-14T02:33:13;98766.84;;;10.97;100.00
37238;BME280;23129;49.662;8.448;2023-03-14T02:35:49;98767.78;;;10.96;100.00
37238;BME280;23129;49.662;8.448;2023-03-14T02:38:23;98760.88;;;10.95;100.00
37238;BME280;23129;49.662;8.448;2023-03-14T02:40:54;98754.69;;;10.96;100.00
37238;BME280;23129;49.662;8.448;2023-03-14T02:43:24;98744.94;;;10.99;100.00
37238;BME280;23129;49.662;8.448;2023-03-14T02:45:59;98742.31;;;10.99;100.00
37238;BME280;23129;49.662;8.448;2023-03-14T02:48:33;98752.81;;;10.99;100.00
37238;BME280;23129;49.662;8.448;2023-03-14T02:51:02;98758.06;;;10.99;100.00
37238;BME280;23129;49.662;8.448;2023-03-14T02:53:34;98759.75;;;11.00;100.00
37238;BME280;23129;49.662;8.448;2023-03-14T02:56:08;98740.44;;;11.01;100.00
37238;BME280;23129;49.662;8.448;2023-03-14T02:58:39;98757.06;;;11.01;100.00
37238;BME280;23129;49.662;8.448;2023-03-14T03:01:34;98755.28;;;11.02;100.00
37238;BME280;23129;49.662;8.448;2023-03-14T03:04:03;98747.47;;;11.00;100.00
37238;BME280;23129;49.662;8.448;2023-03-14T03:06:31;98742.16;;;11.02;100.00
37238;BME280;23129;49.662;8.448;2023-03-14T03:09:00;98722.84;;;11.03;100.00
37238;BME280;23129;49.662;8.448;2023-03-14T03:11:29;98718.44;;;11.03;100.00
37238;BME280;23129;49.662;8.448;2023-03-14T03:13:59;98720.22;;;11.03;100.00
37238;BME280;23129;49.662;8.448;2023-03-14T03:16:29;98717.59;;;11.03;100.00
37238;BME280;23129;49.662;8.448;2023-03-14T03:18:57;98714.22;;;11.01;100.00
37238;BME280;23129;49.662;8.448;2023-03-14T03:21:26;98727.31;;;11.01;100.00
37238;BME280;23129;49.662;8.448;2023-03-14T03:23:54;98705.59;;;10.99;100.00
37238;BME280;23129;49.662;8.448;2023-03-14T03:26:23;98704.84;;;10.96;100.00
37238;BME280;23129;49.662;8.448;2023-03-14T03:28:52;98699.59;;;10.96;100.00
37238;BME280;23129;49.662;8.448;2023-03-14T03:31:23;98693.41;;;10.97;100.00
37238;BME280;23129;49.662;8.448;2023-03-14T03:33:52;98676.94;;;10.95;100.00
37238;BME280;23129;49.662;8.448;2023-03-14T03:36:21;98670.75;;;10.96;100.00
37238;BME280;23129;49.662;8.448;2023-03-14T03:38:51;98692.84;;;10.92;100.00
37238;BME280;23129;49.662;8.448;2023-03-14T03:41:20;98678.97;;;10.90;100.00
37238;BME280;23129;49.662;8.448;2023-03-14T03:43:50;98667.53;;;10.91;100.00
37238;BME280;23129;49.662;8.448;2023-03-14T03:46:19;98657.91;;;10.92;100.00
37238;BME280;23129;49.662;8.448;2023-03-14T03:48:54;98668.41;;;10.92;100.00
37238;BME280;23129;49.662;8.448;2023-03-14T03:51:24;98662.28;;;10.91;100.00
37238;BME280;23129;49.662;8.448;2023-03-14T03:53:52;98664.91;;;10.91;100.00
37238;BME280;23129;49.662;8.448;2023-03-14T03:56:27;98665.66;;;10.93;100.00
37238;BME280;23129;49.662;8.448;2023-03-14T03:58:56;98672.59;;;10.94;100.00
37238;BME280;23129;49.662;8.448;2023-03-14T04:01:25;98662.97;;;10.95;100.00
37238;BME280;23129;49.662;8.448;2023-03-14T04:03:58;98661.91;;;10.97;100.00
37238;BME280;23129;49.662;8.448;2023-03-14T04:06:27;98663.81;;;10.95;100.00
37238;BME280;23129;49.662;8.448;2023-03-14T04:08:58;98665.50;;;10.96;100.00
37238;BME280;23129;49.662;8.448;2023-03-14T04:11:48;98678.53;;;10.98;100.00
37238;BME280;23129;49.662;8.448;2023-03-14T04:14:19;98669.63;;;11.01;100.00
37238;BME280;23129;49.662;8.448;2023-03-14T04:16:54;98668.69;;;11.02;100.00
37238;BME280;23129;49.662;8.448;2023-03-14T04:19:24;98671.16;;;11.05;100.00
37238;BME280;23129;49.662;8.448;2023-03-14T04:21:55;98666.63;;;11.07;100.00
37238;BME280;23129;49.662;8.448;2023-03-14T04:24:26;98663.84;;;11.10;100.00
37238;BME280;23129;49.662;8.448;2023-03-14T04:26:56;98661.97;;;11.12;100.00
37238;BME280;23129;49.662;8.448;2023-03-14T04:29:25;98667.69;;;11.18;100.00
37238;BME280;23129;49.662;8.448;2023-03-14T04:31:54;98670.13;;;11.22;100.00
37238;BME280;23129;49.662;8.448;2023-03-14T04:34:24;98663.88;;;11.24;100.00
37238;BME280;23129;49.662;8.448;2023-03-14T04:36:55;98665.41;;;11.28;100.00
37238;BME280;23129;49.662;8.448;2023-03-14T04:39:30;98663.50;;;11.30;100.00
37238;BME280;23129;49.662;8.448;2023-03-14T04:42:28;98660.16;;;11.28;100.00
37238;BME280;23129;49.662;8.448;2023-03-14T04:44:58;98660.16;;;11.28;100.00
37238;BME280;23129;49.662;8.448;2023-03-14T04:47:29;98649.72;;;11.27;100.00
37238;BME280;23129;49.662;8.448;2023-03-14T04:50:00;98651.50;;;11.26;100.00
37238;BME280;23129;49.662;8.448;2023-03-14T04:52:29;98655.91;;;11.26;100.00
37238;BME280;23129;49.662;8.448;2023-03-14T04:54:59;98648.81;;;11.28;100.00
37238;BME280;23129;49.662;8.448;2023-03-14T04:57:28;98624.31;;;11.27;100.00
37238;BME280;23129;49.662;8.448;2023-03-14T04:59:58;98622.56;;;11.28;100.00
37238;BME280;23129;49.662;8.448;2023-03-14T05:02:44;98626.03;;;11.28;100.00
37238;BME280;23129;49.662;8.448;2023-03-14T05:05:33;98620.97;;;11.25;100.00
37238;BME280;23129;49.662;8.448;2023-03-14T05:08:33;98627.13;;;11.24;100.00
37238;BME280;23129;49.662;8.448;2023-03-14T05:11:21;98620.19;;;11.23;100.00
37238;BME280;23129;49.662;8.448;2023-03-14T05:14:01;98624.50;;;11.24;100.00
37238;BME280;23129;49.662;8.448;2023-03-14T05:17:04;98635.00;;;11.24;100.00
37238;BME280;23129;49.662;8.448;2023-03-14T05:19:36;98623.59;;;11.25;100.00
37238;BME280;23129;49.662;8.448;2023-03-14T05:22:28;98628.84;;;11.25;100.00
37238;BME280;23129;49.662;8.448;2023-03-14T05:25:15;98613.94;;;11.26;100.00
37238;BME280;23129;49.662;8.448;2023-03-14T05:28:00;98621.69;;;11.27;100.00
37238;BME280;23129;49.662;8.448;2023-03-14T05:30:50;98610.34;;;11.27;100.00
37238;BME280;23129;49.662;8.448;2023-03-14T05:33:30;98613.94;;;11.26;100.00
37238;BME280;23129;49.662;8.448;2023-03-14T05:36:22;98619.38;;;11.23;100.00
37238;BME280;23129;49.662;8.448;2023-03-14T05:39:10;98608.03;;;11.22;100.00
37238;BME280;23129;49.662;8.448;2023-03-14T05:42:01;98615.13;;;11.20;100.00
37238;BME280;23129;49.662;8.448;2023-03-14T05:44:48;98610.72;;;11.20;100.00
37238;BME280;23129;49.662;8.448;2023-03-14T05:47:36;98617.00;;;11.18;100.00
37238;BME280;23129;49.662;8.448;2023-03-14T05:50:21;98611.75;;;11.18;100.00
37238;BME280;23129;49.662;8.448;2023-03-14T05:53:22;98601.44;;;11.15;100.00
37238;BME280;23129;49.662;8.448;2023-03-14T05:56:15;98617.28;;;11.13;100.00
37238;BME280;23129;49.662;8.448;2023-03-14T05:59:02;98616.63;;;11.10;100.00
37238;BME280;23129;49.662;8.448;2023-03-14T06:01:41;98603.53;;;11.10;100.00
37238;BME280;23129;49.662;8.448;2023-03-14T06:04:15;98612.31;;;11.09;100.00
37238;BME280;23129;49.662;8.448;2023-03-14T06:06:48;98622.97;;;11.06;100.00
37238;BME280;23129;49.662;8.448;2023-03-14T06:09:17;98607.25;;;11.06;100.00
37238;BME280;23129;49.662;8.448;2023-03-14T06:11:48;98610.81;;;11.05;100.00
37238;BME280;23129;49.662;8.448;2023-03-14T06:14:17;98611.72;;;11.04;100.00
37238;BME280;23129;49.662;8.448;2023-03-14T06:16:47;98616.06;;;11.05;100.00
37238;BME280;23129;49.662;8.448;2023-03-14T06:19:19;98609.09;;;11.04;100.00
37238;BME280;23129;49.662;8.448;2023-03-14T06:21:47;98619.59;;;11.04;100.00
37238;BME280;23129;49.662;8.448;2023-03-14T06:24:16;98625.59;;;11.06;100.00
37238;BME280;23129;49.662;8.448;2023-03-14T06:26:50;98631.03;;;11.03;100.00
37238;BME280;23129;49.662;8.448;2023-03-14T06:29:19;98630.44;;;10.97;100.00
37238;BME280;23129;49.662;8.448;2023-03-14T06:31:48;98622.94;;;10.91;100.00
37238;BME280;23129;49.662;8.448;2023-03-14T06:34:18;98614.59;;;10.85;100.00
37238;BME280;23129;49.662;8.448;2023-03-14T06:36:46;98615.63;;;10.82;100.00
37238;BME280;23129;49.662;8.448;2023-03-14T06:39:15;98640.50;;;10.75;100.00
37238;BME280;23129;49.662;8.448;2023-03-14T06:41:47;98618.94;;;10.70;100.00
37238;BME280;23129;49.662;8.448;2023-03-14T06:44:18;98627.00;;;10.67;100.00
37238;BME280;23129;49.662;8.448;2023-03-14T06:46:47;98627.00;;;10.67;100.00
37238;BME280;23129;49.662;8.448;2023-03-14T06:49:16;98615.41;;;10.71;100.00
37238;BME280;23129;49.662;8.448;2023-03-14T06:51:44;98601.19;;;10.75;100.00
37238;BME280;23129;49.662;8.448;2023-03-14T06:54:13;98609.28;;;10.86;100.00
37238;BME280;23129;49.662;8.448;2023-03-14T06:56:42;98606.94;;;10.96;100.00
37238;BME280;23129;49.662;8.448;2023-03-14T06:59:11;98617.72;;;11.06;100.00
37238;BME280;23129;49.662;8.448;2023-03-14T07:01:41;98612.13;;;11.12;100.00
37238;BME280;23129;49.662;8.448;2023-03-14T07:04:11;98624.13;;;11.16;100.00
37238;BME280;23129;49.662;8.448;2023-03-14T07:06:44;98604.63;;;11.20;100.00
37238;BME280;23129;49.662;8.448;2023-03-14T07:09:13;98606.13;;;11.24;100.00
37238;BME280;23129;49.662;8.448;2023-03-14T07:11:49;98605.94;;;11.27;100.00
37238;BME280;23129;49.662;8.448;2023-03-14T07:14:19;98598.84;;;11.29;100.00
37238;BME280;23129;49.662;8.448;2023-03-14T07:16:50;98593.41;;;11.32;100.00
37238;BME280;23129;49.662;8.448;2023-03-14T07:19:18;98610.81;;;11.33;100.00
37238;BME280;23129;49.662;8.448;2023-03-14T07:21:47;98601.09;;;11.35;100.00
37238;BME280;23129;49.662;8.448;2023-03-14T07:24:20;98596.59;;;11.37;100.00
37238;BME280;23129;49.662;8.448;2023-03-14T07:26:49;98590.41;;;11.38;100.00
37238;BME280;23129;49.662;8.448;2023-03-14T07:29:17;98583.28;;;11.40;100.00
37238;BME280;23129;49.662;8.448;2023-03-14T07:31:46;98594.50;;;11.42;100.00
37238;BME280;23129;49.662;8.448;2023-03-14T07:34:19;98587.41;;;11.45;100.00
37238;BME280;23129;49.662;8.448;2023-03-14T07:36:48;98578.41;;;11.49;100.00
37238;BME280;23129;49.662;8.448;2023-03-14T07:39:17;98611.22;;;11.56;100.00
37238;BME280;23129;49.662;8.448;2023-03-14T07:42:01;98584.59;;;11.62;100.00
37238;BME280;23129;49.662;8.448;2023-03-14T07:44:58;98612.50;;;11.63;100.00
37238;BME280;23129;49.662;8.448;2023-03-14T07:47:27;98594.69;;;11.68;100.00
37238;BME280;23129;49.662;8.448;2023-03-14T07:49:56;98599.75;;;11.71;100.00
37238;BME280;23129;49.662;8.448;2023-03-14T07:52:25;98592.53;;;11.75;100.00
37238;BME280;23129;49.662;8.448;2023-03-14T07:54:53;98600.22;;;11.78;100.00
37238;BME280;23129;49.662;8.448;2023-03-14T07:57:22;98602.41;;;11.85;100.00
37238;BME280;23129;49.662;8.448;2023-03-14T07:59:52;98610.84;;;11.91;100.00
37238;BME280;23129;49.662;8.448;2023-03-14T08:02:20;98596.28;;;11.99;100.00
37238;BME280;23129;49.662;8.448;2023-03-14T08:04:51;98618.28;;;12.11;100.00
37238;BME280;23129;49.662;8.448;2023-03-14T08:07:20;98595.75;;;12.21;100.00
37238;BME280;23129;49.662;8.448;2023-03-14T08:09:49;98616.19;;;12.30;100.00
37238;BME280;23129;49.662;8.448;2023-03-14T08:12:17;98617.59;;;12.36;100.00
37238;BME280;23129;49.662;8.448;2023-03-14T08:14:46;98624.53;;;12.37;100.00
37238;BME280;23129;49.662;8.448;2023-03-14T08:17:14;98618.44;;;12.37;100.00
37238;BME280;23129;49.662;8.448;2023-03-14T08:19:43;98619.91;;;12.41;100.00
37238;BME280;23129;49.662;8.448;2023-03-14T08:22:11;98643.91;;;12.49;100.00
37238;BME280;23129;49.662;8.448;2023-03-14T08:24:41;98629.41;;;12.56;100.00
37238;BME280;23129;49.662;8.448;2023-03-14T08:27:09;98636.19;;;12.60;100.00
37238;BME280;23129;49.662;8.448;2023-03-14T08:29:38;98644.78;;;12.62;100.00
37238;BME280;23129;49.662;8.448;2023-03-14T08:32:08;98632.50;;;12.63;100.00
37238;BME280;23129;49.662;8.448;2023-03-14T08:34:37;98640.19;;;12.66;100.00
37238;BME280;23129;49.662;8.448;2023-03-14T08:37:06;98635.59;;;12.69;100.00
37238;BME280;23129;49.662;8.448;2023-03-14T08:39:53;98642.63;;;12.69;100.00
37238;BME280;23129;49.662;8.448;2023-03-14T08:42:22;98632.13;;;12.69;100.00
37238;BME280;23129;49.662;8.448;2023-03-14T08:44:51;98641.88;;;12.67;100.00
37238;BME280;23129;49.662;8.448;2023-03-14T08:47:20;98641.25;;;12.63;100.00
37238;BME280;23129;49.662;8.448;2023-03-14T08:49:48;98678.25;;;12.60;100.00
37238;BME280;23129;49.662;8.448;2023-03-14T08:52:16;98647.53;;;12.61;99.66
37238;BME280;23129;49.662;8.448;2023-03-14T08:54:45;98648.59;;;12.58;99.96
37238;BME280;23129;49.662;8.448;2023-03-14T08:57:16;98655.50;;;12.59;100.00
37238;BME280;23129;49.662;8.448;2023-03-14T08:59:44;98657.41;;;12.57;99.99
37238;BME280;23129;49.662;8.448;2023-03-14T09:02:13;98627.53;;;12.58;100.00
37238;BME280;23129;49.662;8.448;2023-03-14T09:04:41;98645.16;;;12.70;99.79
37238;BME280;23129;49.662;8.448;2023-03-14T09:07:10;98642.13;;;12.76;99.56
37238;BME280;23129;49.662;8.448;2023-03-14T09:09:38;98645.28;;;12.82;100.00
37238;BME280;23129;49.662;8.448;2023-03-14T09:12:07;98632.56;;;12.88;100.00
37238;BME280;23129;49.662;8.448;2023-03-14T09:14:37;98633.34;;;13.03;100.00
37238;BME280;23129;49.662;8.448;2023-03-14T09:17:05;98627.66;;;13.09;100.00
37238;BME280;23129;49.662;8.448;2023-03-14T09:19:35;98632.28;;;13.18;100.00
37238;BME280;23129;49.662;8.448;2023-03-14T09:22:03;98625.81;;;13.50;100.00
37238;BME280;23129;49.662;8.448;2023-03-14T09:24:32;98630.66;;;13.68;100.00
37238;BME280;23129;49.662;8.448;2023-03-14T09:27:00;98616.09;;;13.63;98.53
37238;BME280;23129;49.662;8.448;2023-03-14T09:29:29;98642.88;;;13.57;99.16
37238;BME280;23129;49.662;8.448;2023-03-14T09:32:00;98619.81;;;13.47;98.88
37238;BME280;23129;49.662;8.448;2023-03-14T09:34:29;98622.97;;;13.40;100.00
37238;BME280;23129;49.662;8.448;2023-03-14T09:36:57;98605.69;;;13.36;99.70
37238;BME280;23129;49.662;8.448;2023-03-14T09:39:26;98642.03;;;13.31;99.35
37238;BME280;23129;49.662;8.448;2023-03-14T09:41:55;98636.66;;;13.32;99.71
37238;BME280;23129;49.662;8.448;2023-03-14T09:44:28;98641.09;;;13.32;98.38
37238;BME280;23129;49.662;8.448;2023-03-14T09:47:00;98641.09;;;13.32;99.30
37238;BME280;23129;49.662;8.448;2023-03-14T09:49:32;98629.59;;;13.33;99.58
37238;BME280;23129;49.662;8.448;2023-03-14T09:52:06;98631.50;;;13.31;99.44
37238;BME280;23129;49.662;8.448;2023-03-14T09:54:38;98642.22;;;13.28;99.74
37238;BME280;23129;49.662;8.448;2023-03-14T09:57:13;98652.94;;;13.24;99.82
37238;BME280;23129;49.662;8.448;2023-03-14T09:59:44;98655.06;;;13.19;99.47
37238;BME280;23129;49.662;8.448;2023-03-14T10:02:19;98646.41;;;13.17;100.00
37238;BME280;23129;49.662;8.448;2023-03-14T10:04:50;98642.81;;;13.18;100.00
37238;BME280;23129;49.662;8.448;2023-03-14T10:07:29;98639.25;;;13.19;99.77
37238;BME280;23129;49.662;8.448;2023-03-14T10:09:58;98641.78;;;13.21;100.00
37238;BME280;23129;49.662;8.448;2023-03-14T10:12:35;98632.91;;;13.22;99.60
37238;BME280;23129;49.662;8.448;2023-03-14T10:15:08;98627.25;;;13.15;99.98
37238;BME280;23129;49.662;8.448;2023-03-14T10:17:44;98629.66;;;13.06;100.00
37238;BME280;23129;49.662;8.448;2023-03-14T10:20:30;98635.41;;;12.98;100.00
37238;BME280;23129;49.662;8.448;2023-03-14T10:23:02;98633.19;;;12.92;100.00
37238;BME280;23129;49.662;8.448;2023-03-14T10:25:32;98627.50;;;12.85;100.00
37238;BME280;23129;49.662;8.448;2023-03-14T10:28:03;98633.09;;;12.81;100.00
37238;BME280;23129;49.662;8.448;2023-03-14T10:30:41;98629.16;;;12.73;100.00
37238;BME280;23129;49.662;8.448;2023-03-14T10:33:22;98634.75;;;12.69;100.00
37238;BME280;23129;49.662;8.448;2023-03-14T10:35:56;98641.25;;;12.63;100.00
37238;BME280;23129;49.662;8.448;2023-03-14T10:38:28;98635.53;;;12.56;100.00
37238;BME280;23129;49.662;8.448;2023-03-14T10:40:57;98641.09;;;12.52;100.00
37238;BME280;23129;49.662;8.448;2023-03-14T10:43:31;98637.38;;;12.42;100.00
37238;BME280;23129;49.662;8.448;2023-03-14T10:46:06;98633.94;;;12.27;100.00
37238;BME280;23129;49.662;8.448;2023-03-14T10:48:58;98646.28;;;12.12;100.00
37238;BME280;23129;49.662;8.448;2023-03-14T10:51:27;98631.28;;;12.00;100.00
37238;BME280;23129;49.662;8.448;2023-03-14T10:53:59;98647.53;;;11.92;100.00
37238;BME280;23129;49.662;8.448;2023-03-14T10:56:34;98638.50;;;11.82;100.00
37238;BME280;23129;49.662;8.448;2023-03-14T10:59:07;98641.97;;;11.68;100.00
37238;BME280;23129;49.662;8.448;2023-03-14T11:01:43;98650.69;;;11.54;100.00
37238;BME280;23129;49.662;8.448;2023-03-14T11:04:29;98657.69;;;11.39;100.00
37238;BME280;23129;49.662;8.448;2023-03-14T11:07:07;98665.41;;;11.28;100.00
37238;BME280;23129;49.662;8.448;2023-03-14T11:09:45;98666.13;;;11.16;100.00
37238;BME280;23129;49.662;8.448;2023-03-14T11:12:33;98661.38;;;11.07;100.00
37238;BME280;23129;49.662;8.448;2023-03-14T11:15:11;98664.28;;;11.02;100.00
37238;BME280;23129;49.662;8.448;2023-03-14T11:17:53;98672.25;;;11.01;100.00
37238;BME280;23129;49.662;8.448;2023-03-14T11:20:38;98683.50;;;11.03;100.00
37238;BME280;23129;49.662;8.448;2023-03-14T11:23:13;98677.41;;;11.02;100.00
37238;BME280;23129;49.662;8.448;2023-03-14T11:25:49;98684.44;;;11.02;100.00
37238;BME280;23129;49.662;8.448;2023-03-14T11:28:26;98681.06;;;11.00;100.00
37238;BME280;23129;49.662;8.448;2023-03-14T11:31:06;98690.53;;;11.02;100.00
37238;BME280;23129;49.662;8.448;2023-03-14T11:33:47;98681.47;;;11.08;100.00
37238;BME280;23129;49.662;8.448;2023-03-14T11:36:27;98698.44;;;11.16;100.00
37238;BME280;23129;49.662;8.448;2023-03-14T11:38:59;98698.56;;;11.29;100.00
37238;BME280;23129;49.662;8.448;2023-03-14T11:41:31;98700.56;;;11.40;100.00
37238;BME280;23129;49.662;8.448;2023-03-14T11:44:18;98734.03;;;11.51;100.00
37238;BME280;23129;49.662;8.448;2023-03-14T11:46:52;98723.00;;;11.60;100.00
37238;BME280;23129;49.662;8.448;2023-03-14T11:49:32;98719.16;;;11.65;100.00
37238;BME280;23129;49.662;8.448;2023-03-14T11:52:12;98730.13;;;11.72;100.00
37238;BME280;23129;49.662;8.448;2023-03-14T11:54:48;98741.41;;;11.74;100.00
37238;BME280;23129;49.662;8.448;2023-03-14T11:57:21;98761.38;;;11.77;100.00
37238;BME280;23129;49.662;8.448;2023-03-14T11:59:54;98751.34;;;11.83;100.00
37238;BME280;23129;49.662;8.448;2023-03-14T12:02:32;98762.47;;;11.88;100.00
37238;BME280;23129;49.662;8.448;2023-03-14T12:05:36;98767.59;;;11.90;100.00
37238;BME280;23129;49.662;8.448;2023-03-14T12:08:42;98813.28;;;11.87;100.00
37238;BME280;23129;49.662;8.448;2023-03-14T12:11:17;98806.50;;;11.83;100.00
37238;BME280;23129;49.662;8.448;2023-03-14T12:13:50;98816.44;;;11.78;100.00
37238;BME280;23129;49.662;8.448;2023-03-14T12:16:40;98834.44;;;11.70;100.00
37238;BME280;23129;49.662;8.448;2023-03-14T12:19:37;98860.38;;;11.60;100.00
37238;BME280;23129;49.662;8.448;2023-03-14T12:22:23;98870.72;;;11.48;100.00
37238;BME280;23129;49.662;8.448;2023-03-14T12:25:04;98898.53;;;11.36;100.00
37238;BME280;23129;49.662;8.448;2023-03-14T12:28:03;98903.44;;;11.26;100.00
37238;BME280;23129;49.662;8.448;2023-03-14T12:30:35;98912.25;;;11.25;100.00
37238;BME280;23129;49.662;8.448;2023-03-14T12:33:30;98937.63;;;11.25;100.00
37238;BME280;23129;49.662;8.448;2023-03-14T12:36:02;98957.44;;;11.30;100.00
37238;BME280;23129;49.662;8.448;2023-03-14T12:39:19;98953.41;;;11.40;100.00
37238;BME280;23129;49.662;8.448;2023-03-14T12:41:53;98964.00;;;11.55;100.00
37238;BME280;23129;49.662;8.448;2023-03-14T12:44:47;98975.91;;;11.76;100.00
37238;BME280;23129;49.662;8.448;2023-03-14T12:48:01;98974.72;;;11.98;100.00
37238;BME280;23129;49.662;8.448;2023-03-14T12:50:36;99000.53;;;12.05;100.00
37238;BME280;23129;49.662;8.448;2023-03-14T12:56:40;99030.06;;;11.95;100.00
37238;BME280;23129;49.662;8.448;2023-03-14T12:59:31;99041.47;;;11.78;100.00
37238;BME280;23129;49.662;8.448;2023-03-14T13:02:20;99045.06;;;11.61;100.00
37238;BME280;23129;49.662;8.448;2023-03-14T13:04:52;99044.78;;;11.50;100.00
37238;BME280;23129;49.662;8.448;2023-03-14T13:10:21;99040.03;;;11.40;100.00
37238;BME280;23129;49.662;8.448;2023-03-14T13:12:52;99072.22;;;11.44;98.90
37238;BME280;23129;49.662;8.448;2023-03-14T13:15:28;99067.47;;;11.51;99.27
37238;BME280;23129;49.662;8.448;2023-03-14T13:18:02;99062.72;;;11.57;100.00
37238;BME280;23129;49.662;8.448;2023-03-14T13:20:35;99085.34;;;11.60;99.51
37238;BME280;23129;49.662;8.448;2023-03-14T13:23:05;99132.63;;;11.60;99.85
37238;BME280;23129;49.662;8.448;2023-03-14T13:25:35;99120.81;;;11.51;98.88
37238;BME280;23129;49.662;8.448;2023-03-14T13:28:04;99131.81;;;11.42;99.58
37238;BME280;23129;49.662;8.448;2023-03-14T13:30:41;99130.69;;;11.30;99.13
37238;BME280;23129;49.662;8.448;2023-03-14T13:33:15;99139.50;;;11.12;99.08